createdAt,value
2023-01-01T00:00:06.770Z,75.34
2023-01-01T00:02:37.185Z,75.31
2023-01-01T00:05:06.460Z,75.37
2023-01-01T00:07:34.222Z,75.42
2023-01-01T00:10:18.046Z,75.42
2023-01-01T00:12:45.830Z,75.38
2023-01-01T00:15:13.638Z,75.38
2023-01-01T00:17:41.606Z,75.36
2023-01-01T00:20:09.765Z,75.39
2023-01-01T00:22:55.375Z,75.23
2023-01-01T00:25:24.668Z,75.25
2023-01-01T00:27:52.591Z,75.30
2023-01-01T00:30:20.384Z,75.24
2023-01-01T00:32:54.438Z,75.17
2023-01-01T00:35:25.153Z,75.26
2023-01-01T00:37:54.143Z,75.15
2023-01-01T00:40:22.152Z,75.09
2023-01-01T00:42:49.969Z,75.13
2023-01-01T00:45:22.005Z,75.21
2023-01-01T00:47:52.667Z,75.12
2023-01-01T00:50:22.467Z,75.26
2023-01-01T00:52:50.345Z,75.21
2023-01-01T00:55:18.255Z,75.16
2023-01-01T00:57:46.184Z,75.11
2023-01-01T01:00:15.253Z,75.09
2023-01-01T01:02:43.374Z,75.08
2023-01-01T01:05:11.470Z,75.12
2023-01-01T01:07:39.987Z,75.04
2023-01-01T01:10:09.747Z,75.03
2023-01-01T01:12:38.105Z,74.95
2023-01-01T01:15:07.288Z,74.93
2023-01-01T01:17:35.479Z,74.92
2023-01-01T01:20:04.356Z,74.89
2023-01-01T01:22:34.574Z,74.89
2023-01-01T01:25:02.963Z,74.99
2023-01-01T01:27:30.921Z,74.83
2023-01-01T01:29:58.666Z,74.80
2023-01-01T01:32:26.472Z,74.92
2023-01-01T01:34:54.277Z,74.93
2023-01-01T01:37:22.073Z,74.98
2023-01-01T01:39:53.820Z,74.93
2023-01-01T01:42:22.576Z,74.93
2023-01-01T01:44:59.752Z,74.89
2023-01-01T01:47:49.955Z,75.02
2023-01-01T01:50:39.867Z,75.03
2023-01-01T01:53:16.411Z,74.94
2023-01-01T01:55:49.085Z,74.92
2023-01-01T01:58:17.270Z,74.81
2023-01-01T02:00:45.065Z,74.88
2023-01-01T02:03:18.820Z,74.77
2023-01-01T02:05:47.206Z,74.58
2023-01-01T02:08:15.986Z,74.64
2023-01-01T02:10:44.019Z,74.55
2023-01-01T02:13:12.082Z,74.63
2023-01-01T02:15:47.888Z,74.61
2023-01-01T02:18:21.438Z,74.53
2023-01-01T02:21:01.251Z,74.55
2023-01-01T02:24:06.712Z,74.62
2023-01-01T02:26:48.662Z,74.53
2023-01-01T02:29:32.370Z,74.60
2023-01-01T02:32:06.836Z,74.41
2023-01-01T02:34:42.278Z,74.47
2023-01-01T02:37:15.058Z,74.47
2023-01-01T02:39:50.663Z,74.44
2023-01-01T02:42:19.905Z,74.35
2023-01-01T02:44:51.061Z,74.44
2023-01-01T02:47:20.373Z,74.39
2023-01-01T02:50:10.639Z,74.44
2023-01-01T02:52:57.363Z,74.26
2023-01-01T02:55:37.380Z,74.32
2023-01-01T02:58:35.613Z,74.32
2023-01-01T03:01:22.633Z,74.11
2023-01-01T03:03:57.939Z,74.18
2023-01-01T03:06:37.103Z,74.10
2023-01-01T03:09:10.771Z,73.99
2023-01-01T03:12:06.797Z,74.05
2023-01-01T03:14:40.563Z,73.98
2023-01-01T03:17:27.215Z,73.96
2023-01-01T03:19:59.025Z,73.84
2023-01-01T03:22:34.981Z,74.05
2023-01-01T03:25:09.101Z,74.09
2023-01-01T03:27:44.263Z,73.85
2023-01-01T03:30:15.841Z,73.99
2023-01-01T03:33:01.747Z,73.93
2023-01-01T03:35:40.959Z,73.88
2023-01-01T03:38:45.992Z,73.71
2023-01-01T03:41:25.843Z,73.76
2023-01-01T03:44:09.335Z,73.63
2023-01-01T03:46:37.750Z,73.62
2023-01-01T03:49:08.233Z,73.58
2023-01-01T03:51:51.765Z,73.59
2023-01-01T03:54:33.439Z,73.50
2023-01-01T03:57:33.075Z,73.61
2023-01-01T04:00:21.306Z,73.57
2023-01-01T04:02:54.244Z,73.46
2023-01-01T04:05:24.012Z,73.47
2023-01-01T04:07:53.613Z,73.41
2023-01-01T04:10:23.739Z,73.39
2023-01-01T04:12:57.185Z,73.39
2023-01-01T04:15:27.462Z,73.35
2023-01-01T04:17:55.389Z,73.34
2023-01-01T04:20:23.968Z,73.25
2023-01-01T04:22:52.132Z,73.33
2023-01-01T04:25:19.954Z,73.24
2023-01-01T04:27:47.763Z,73.14
2023-01-01T04:30:16.052Z,73.08
2023-01-01T04:32:43.938Z,73.13
2023-01-01T04:35:13.684Z,73.08
2023-01-01T04:37:43.831Z,73.04
2023-01-01T04:40:13.190Z,73.01
2023-01-01T04:42:41.142Z,73.05
2023-01-01T04:45:09.488Z,72.94
2023-01-01T04:47:37.251Z,72.99
2023-01-01T04:50:05.613Z,72.99
2023-01-01T04:52:33.709Z,72.88
2023-01-01T04:55:01.506Z,72.96
2023-01-01T04:57:30.698Z,72.92
2023-01-01T04:59:58.589Z,72.94
2023-01-01T05:02:27.169Z,72.93
2023-01-01T05:04:55.540Z,72.82
2023-01-01T05:07:23.344Z,72.92
2023-01-01T05:09:51.120Z,72.75
2023-01-01T05:12:18.896Z,72.61
2023-01-01T05:14:46.650Z,72.64
2023-01-01T05:17:14.936Z,72.65
2023-01-01T05:19:42.750Z,72.57
2023-01-01T05:22:11.370Z,72.68
2023-01-01T05:24:39.414Z,72.69
2023-01-01T05:27:07.165Z,72.64
2023-01-01T05:29:34.974Z,72.68
2023-01-01T05:32:02.940Z,72.64
2023-01-01T05:36:57.720Z,72.59
2023-01-01T05:39:25.450Z,72.60
2023-01-01T05:41:53.184Z,72.66
2023-01-01T05:44:21.001Z,72.59
2023-01-01T05:46:48.813Z,72.69
2023-01-01T05:49:16.586Z,72.64
2023-01-01T05:51:44.691Z,72.51
2023-01-01T05:56:39.565Z,72.56
2023-01-01T05:59:07.387Z,72.63
2023-01-01T06:01:40.176Z,72.50
2023-01-01T06:04:13.789Z,72.53
2023-01-01T06:06:41.775Z,72.63
2023-01-01T06:09:10.255Z,72.51
2023-01-01T06:11:38.483Z,72.47
2023-01-01T06:14:06.406Z,72.44
2023-01-01T06:16:34.716Z,72.45
2023-01-01T06:19:02.699Z,72.41
2023-01-01T06:21:30.512Z,72.45
2023-01-01T06:24:00.434Z,72.38
2023-01-01T06:26:31.489Z,72.35
2023-01-01T06:29:01.625Z,72.37
2023-01-01T06:31:34.070Z,72.37
2023-01-01T06:34:04.765Z,72.47
2023-01-01T06:36:32.977Z,72.43
2023-01-01T06:39:01.508Z,72.41
2023-01-01T06:41:30.849Z,72.43
2023-01-01T06:44:00.950Z,72.55
2023-01-01T06:46:31.232Z,72.51
2023-01-01T06:49:07.564Z,72.51
2023-01-01T06:51:43.834Z,72.52
2023-01-01T06:54:12.249Z,72.51
2023-01-01T06:56:40.179Z,72.49
2023-01-01T06:59:07.991Z,72.48
2023-01-01T07:01:39.902Z,72.46
2023-01-01T07:04:15.552Z,72.55
2023-01-01T07:06:43.468Z,72.51
2023-01-01T07:09:11.334Z,72.50
2023-01-01T07:11:39.146Z,72.54
2023-01-01T07:14:06.870Z,72.46
2023-01-01T07:16:34.726Z,72.46
2023-01-01T07:19:02.543Z,72.47
2023-01-01T07:21:40.760Z,72.45
2023-01-01T07:24:12.002Z,72.49
2023-01-01T07:26:41.206Z,72.45
2023-01-01T07:29:09.264Z,72.48
2023-01-01T07:31:40.042Z,72.44
2023-01-01T07:34:15.377Z,72.52
2023-01-01T07:36:43.456Z,72.36
2023-01-01T07:39:11.340Z,72.34
2023-01-01T07:41:39.148Z,72.23
2023-01-01T07:44:06.954Z,72.24
2023-01-01T07:46:36.237Z,72.18
2023-01-01T07:49:04.946Z,72.19
2023-01-01T07:51:32.761Z,72.09
2023-01-01T07:54:06.085Z,72.12
2023-01-01T07:56:36.187Z,71.92
2023-01-01T07:59:04.897Z,72.05
2023-01-01T08:01:36.830Z,72.01
2023-01-01T08:04:05.350Z,71.97
2023-01-01T08:06:33.279Z,71.84
2023-01-01T08:09:01.051Z,71.74
2023-01-01T08:11:28.960Z,71.71
2023-01-01T08:13:56.731Z,71.73
2023-01-01T08:16:24.577Z,71.56
2023-01-01T08:18:52.514Z,71.47
2023-01-01T08:21:20.369Z,71.48
2023-01-01T08:23:48.190Z,71.53
2023-01-01T08:26:17.904Z,71.40
2023-01-01T08:28:45.760Z,71.27
2023-01-01T08:31:13.619Z,71.10
2023-01-01T08:33:41.400Z,71.01
2023-01-01T08:36:12.543Z,70.93
2023-01-01T08:38:40.250Z,70.87
2023-01-01T08:41:08.630Z,70.73
2023-01-01T08:43:36.446Z,70.69
2023-01-01T08:46:04.367Z,70.63
2023-01-01T08:48:32.142Z,70.62
2023-01-01T08:51:00.984Z,70.50
2023-01-01T08:53:30.236Z,70.43
2023-01-01T08:56:03.894Z,70.39
2023-01-01T08:58:32.013Z,70.36
2023-01-01T09:00:59.947Z,70.24
2023-01-01T09:03:28.252Z,70.20
2023-01-01T09:05:56.406Z,70.17
2023-01-01T09:08:24.946Z,70.19
2023-01-01T09:10:53.950Z,70.01
2023-01-01T09:13:22.213Z,70.01
2023-01-01T09:15:50.028Z,70.09
2023-01-01T09:18:18.061Z,69.98
2023-01-01T09:20:45.967Z,69.90
2023-01-01T09:23:13.931Z,69.77
2023-01-01T09:25:41.802Z,69.88
2023-01-01T09:28:12.772Z,69.69
2023-01-01T09:30:40.948Z,69.73
2023-01-01T09:33:08.732Z,69.74
2023-01-01T09:35:38.426Z,69.67
2023-01-01T09:38:06.516Z,69.60
2023-01-01T09:40:41.232Z,69.57
2023-01-01T09:43:31.435Z,69.60
2023-01-01T09:46:04.032Z,69.62
2023-01-01T09:48:33.594Z,69.56
2023-01-01T09:51:05.363Z,69.53
2023-01-01T09:54:11.106Z,69.61
2023-01-01T09:56:41.156Z,69.53
2023-01-01T09:59:11.064Z,69.38
2023-01-01T10:01:58.020Z,69.49
2023-01-01T10:05:01.421Z,69.40
2023-01-01T10:07:45.167Z,69.45
2023-01-01T10:10:38.606Z,69.31
2023-01-01T10:13:22.928Z,69.24
2023-01-01T10:16:01.801Z,69.04
2023-01-01T10:18:37.206Z,68.98
2023-01-01T10:21:20.933Z,69.03
2023-01-01T10:24:01.292Z,68.85
2023-01-01T10:26:31.549Z,68.78
2023-01-01T10:29:15.011Z,68.73
2023-01-01T10:31:47.043Z,68.67
2023-01-01T10:34:20.217Z,68.78
2023-01-01T10:36:52.147Z,68.49
2023-01-01T10:39:20.087Z,68.42
2023-01-01T10:41:48.680Z,68.46
2023-01-01T10:44:28.986Z,68.51
2023-01-01T10:47:16.807Z,68.46
2023-01-01T10:50:02.925Z,68.34
2023-01-01T10:52:41.441Z,68.23
2023-01-01T10:55:25.883Z,68.28
2023-01-01T10:57:54.260Z,68.30
2023-01-01T11:00:28.008Z,68.07
2023-01-01T11:03:20.056Z,68.08
2023-01-01T11:06:19.107Z,68.09
2023-01-01T11:08:50.197Z,68.08
2023-01-01T11:11:41.849Z,68.09
2023-01-01T11:14:26.934Z,68.14
2023-01-01T11:16:57.294Z,68.09
2023-01-01T11:19:31.819Z,68.04
2023-01-01T11:22:00.872Z,68.08
2023-01-01T11:24:31.265Z,68.06
2023-01-01T11:27:30.924Z,67.98
2023-01-01T11:30:32.621Z,68.00
2023-01-01T11:33:04.081Z,68.06
2023-01-01T11:35:37.590Z,68.01
2023-01-01T11:38:05.385Z,68.00
2023-01-01T11:40:37.481Z,67.97
2023-01-01T11:43:07.289Z,67.96
2023-01-01T11:45:42.353Z,67.87
2023-01-01T11:48:30.997Z,67.86
2023-01-01T11:51:02.411Z,67.87
2023-01-01T11:53:35.588Z,67.78
2023-01-01T11:56:22.790Z,67.77
2023-01-01T11:58:58.216Z,67.85
2023-01-01T12:01:47.776Z,67.86
2023-01-01T12:04:38.017Z,67.72
2023-01-01T12:07:12.096Z,67.72
2023-01-01T12:09:58.988Z,67.82
2023-01-01T12:12:34.504Z,67.74
2023-01-01T12:15:17.311Z,67.67
2023-01-01T12:17:51.952Z,67.77
2023-01-01T12:20:35.948Z,67.62
2023-01-01T12:23:03.859Z,67.49
2023-01-01T12:25:44.169Z,67.57
2023-01-01T12:28:25.585Z,67.40
2023-01-01T12:31:07.580Z,67.50
2023-01-01T12:34:07.265Z,67.45
2023-01-01T12:36:40.815Z,67.37
2023-01-01T12:39:14.684Z,67.39
2023-01-01T12:42:14.452Z,67.43
2023-01-01T12:45:04.380Z,67.37
2023-01-01T12:47:51.279Z,67.38
2023-01-01T12:50:54.261Z,67.41
2023-01-01T12:53:55.968Z,67.37
2023-01-01T12:56:52.837Z,67.38
2023-01-01T12:59:26.661Z,67.25
2023-01-01T13:01:58.169Z,67.21
2023-01-01T13:04:27.282Z,67.18
2023-01-01T13:07:06.538Z,67.20
2023-01-01T13:09:50.447Z,67.21
2023-01-01T13:12:22.205Z,67.21
2023-01-01T13:14:50.520Z,67.18
2023-01-01T13:17:26.274Z,67.24
2023-01-01T13:20:16.425Z,67.19
2023-01-01T13:22:44.892Z,67.15
2023-01-01T13:25:12.724Z,67.10
2023-01-01T13:27:56.815Z,67.17
2023-01-01T13:30:43.359Z,67.08
2023-01-01T13:33:27.416Z,67.08
2023-01-01T13:36:27.239Z,67.10
2023-01-01T13:38:57.271Z,67.15
2023-01-01T13:41:31.286Z,67.12
2023-01-01T13:44:04.925Z,67.09
2023-01-01T13:46:41.906Z,67.02
2023-01-01T13:49:20.676Z,67.03
2023-01-01T13:52:05.719Z,67.08
2023-01-01T13:54:57.746Z,67.08
2023-01-01T13:57:41.533Z,67.15
2023-01-01T14:00:30.814Z,67.12
2023-01-01T14:03:15.396Z,67.05
2023-01-01T14:05:50.137Z,67.07
2023-01-01T14:08:37.297Z,67.11
2023-01-01T14:11:24.146Z,67.05
2023-01-01T14:13:51.984Z,67.02
2023-01-01T14:16:19.843Z,67.06
2023-01-01T14:18:50.535Z,66.97
2023-01-01T14:21:21.838Z,67.05
2023-01-01T14:23:54.105Z,66.95
2023-01-01T14:26:24.938Z,66.90
2023-01-01T14:28:58.550Z,66.86
2023-01-01T14:31:31.152Z,66.83
2023-01-01T14:33:59.233Z,66.90
2023-01-01T14:36:30.643Z,66.79
2023-01-01T14:39:02.999Z,66.80
2023-01-01T14:41:37.695Z,66.73
2023-01-01T14:44:24.914Z,66.80
2023-01-01T14:46:54.177Z,66.73
2023-01-01T14:49:28.630Z,66.72
2023-01-01T14:52:17.262Z,66.64
2023-01-01T14:54:46.908Z,66.76
2023-01-01T14:57:25.355Z,66.70
2023-01-01T14:59:56.823Z,66.70
2023-01-01T15:02:33.229Z,66.73
2023-01-01T15:05:31.444Z,66.75
2023-01-01T15:08:06.755Z,66.64
2023-01-01T15:10:39.672Z,66.69
2023-01-01T15:13:08.656Z,66.76
2023-01-01T15:15:44.999Z,66.87
2023-01-01T15:18:46.285Z,66.94
2023-01-01T15:21:43.045Z,66.98
2023-01-01T15:24:15.056Z,66.95
2023-01-01T15:26:55.222Z,67.01
2023-01-01T15:29:34.259Z,67.14
2023-01-01T15:32:08.632Z,67.07
2023-01-01T15:34:51.162Z,67.12
2023-01-01T15:37:28.543Z,67.09
2023-01-01T15:40:00.041Z,67.03
2023-01-01T15:42:31.014Z,67.12
2023-01-01T15:45:17.965Z,67.18
2023-01-01T15:47:47.385Z,67.18
2023-01-01T15:50:18.136Z,67.24
2023-01-01T15:52:55.424Z,67.19
2023-01-01T15:55:33.019Z,67.23
2023-01-01T15:58:03.280Z,67.26
2023-01-01T16:00:41.526Z,67.27
2023-01-01T16:03:26.639Z,67.23
2023-01-01T16:05:56.951Z,67.24
2023-01-01T16:08:25.404Z,67.32
2023-01-01T16:10:53.234Z,67.33
2023-01-01T16:13:21.051Z,67.34
2023-01-01T16:15:53.754Z,67.43
2023-01-01T16:18:28.039Z,67.47
2023-01-01T16:20:56.564Z,67.55
2023-01-01T16:23:24.685Z,67.55
2023-01-01T16:25:52.845Z,67.53
2023-01-01T16:28:20.875Z,67.39
2023-01-01T16:30:49.037Z,67.62
2023-01-01T16:33:19.275Z,67.68
2023-01-01T16:35:47.675Z,67.53
2023-01-01T16:38:15.891Z,67.71
2023-01-01T16:40:43.757Z,67.49
2023-01-01T16:43:18.771Z,67.59
2023-01-01T16:45:47.016Z,67.72
2023-01-01T16:48:15.042Z,67.65
2023-01-01T16:50:43.055Z,67.70
2023-01-01T16:53:10.964Z,67.61
2023-01-01T16:55:38.700Z,67.80
2023-01-01T16:58:47.442Z,67.88
2023-01-01T17:01:01.101Z,67.73
2023-01-01T17:03:29.071Z,67.81
2023-01-01T17:05:56.884Z,67.84
2023-01-01T17:08:24.747Z,67.88
2023-01-01T17:11:09.473Z,67.78
2023-01-01T17:13:37.843Z,67.84
2023-01-01T17:16:06.305Z,67.86
2023-01-01T17:19:04.133Z,68.12
2023-01-01T17:21:22.947Z,68.16
2023-01-01T17:23:51.304Z,68.13
2023-01-01T17:26:22.145Z,68.28
2023-01-01T17:28:58.201Z,68.38
2023-01-01T17:31:29.259Z,68.31
2023-01-01T17:33:57.627Z,68.45
2023-01-01T17:36:28.863Z,68.39
2023-01-01T17:38:57.362Z,68.48
2023-01-01T17:41:25.428Z,68.52
2023-01-01T17:43:53.818Z,68.47
2023-01-01T17:46:24.825Z,68.58
2023-01-01T17:48:52.833Z,68.52
2023-01-01T17:51:21.235Z,68.59
2023-01-01T17:53:50.576Z,68.51
2023-01-01T17:56:19.710Z,68.61
2023-01-01T17:58:49.432Z,68.61
2023-01-01T18:01:23.518Z,68.71
2023-01-01T18:03:55.807Z,68.55
2023-01-01T18:06:24.652Z,68.61
2023-01-01T18:08:57.525Z,68.59
2023-01-01T18:11:30.172Z,68.68
2023-01-01T18:14:00.933Z,68.80
2023-01-01T18:16:29.932Z,68.83
2023-01-01T18:19:01.063Z,68.87
2023-01-01T18:21:28.795Z,68.93
2023-01-01T18:23:57.703Z,68.81
2023-01-01T18:26:29.673Z,69.04
2023-01-01T18:29:00.219Z,68.95
2023-01-01T18:31:30.822Z,69.01
2023-01-01T18:34:00.423Z,68.91
2023-01-01T18:36:30.789Z,69.00
2023-01-01T18:39:01.639Z,69.01
2023-01-01T18:41:36.024Z,68.98
2023-01-01T18:44:17.178Z,69.04
2023-01-01T18:46:50.497Z,69.15
2023-01-01T18:49:18.363Z,68.99
2023-01-01T18:51:49.823Z,69.06
2023-01-01T18:54:17.594Z,69.12
2023-01-01T18:56:46.444Z,69.13
2023-01-01T18:59:25.019Z,69.23
2023-01-01T19:01:53.310Z,69.34
2023-01-01T19:04:21.223Z,69.35
2023-01-01T19:06:49.030Z,69.29
2023-01-01T19:09:25.300Z,69.32
2023-01-01T19:11:54.565Z,69.52
2023-01-01T19:14:25.276Z,69.53
2023-01-01T19:16:58.074Z,69.50
2023-01-01T19:19:29.556Z,69.53
2023-01-01T19:22:06.535Z,69.52
2023-01-01T19:24:35.987Z,69.50
2023-01-01T19:27:22.654Z,69.75
2023-01-01T19:29:52.079Z,69.62
2023-01-01T19:32:21.360Z,69.65
2023-01-01T19:34:49.428Z,69.79
2023-01-01T19:37:17.229Z,69.79
2023-01-01T19:39:45.006Z,69.90
2023-01-01T19:42:12.971Z,69.85
2023-01-01T19:44:40.791Z,70.06
2023-01-01T19:47:10.545Z,69.91
2023-01-01T19:49:38.333Z,70.14
2023-01-01T19:52:07.395Z,70.13
2023-01-01T19:54:35.234Z,70.20
2023-01-01T19:57:02.945Z,70.28
2023-01-01T19:59:33.506Z,70.27
2023-01-01T20:04:50.318Z,70.34
2023-01-01T20:07:18.682Z,70.31
2023-01-01T20:09:46.638Z,70.29
2023-01-01T20:12:14.501Z,70.19
2023-01-01T20:14:42.388Z,70.21
2023-01-01T20:17:10.150Z,70.37
2023-01-01T20:19:38.985Z,70.36
2023-01-01T20:22:14.079Z,70.38
2023-01-01T20:24:42.485Z,70.40
2023-01-01T20:27:17.677Z,70.32
2023-01-01T20:29:45.665Z,70.26
2023-01-01T20:32:15.590Z,70.31
2023-01-01T20:34:43.808Z,70.38
2023-01-01T20:37:26.523Z,70.42
2023-01-01T20:39:54.425Z,70.45
2023-01-01T20:42:22.283Z,70.42
2023-01-01T20:44:50.112Z,70.36
2023-01-01T20:47:17.896Z,70.52
2023-01-01T20:49:45.749Z,70.43
2023-01-01T20:52:13.581Z,70.38
2023-01-01T20:54:41.697Z,70.46
2023-01-01T20:57:09.520Z,70.48
2023-01-01T20:59:38.575Z,70.50
2023-01-01T21:02:11.871Z,70.44
2023-01-01T21:04:40.471Z,70.48
2023-01-01T21:07:12.247Z,70.38
2023-01-01T21:09:41.673Z,70.35
2023-01-01T21:12:10.172Z,70.48
2023-01-01T21:14:38.066Z,70.61
2023-01-01T21:17:23.511Z,70.67
2023-01-01T21:19:55.695Z,70.63
2023-01-01T21:22:24.065Z,70.88
2023-01-01T21:25:10.683Z,70.78
2023-01-01T21:27:43.309Z,70.71
2023-01-01T21:30:12.567Z,70.90
2023-01-01T21:32:43.398Z,70.75
2023-01-01T21:35:21.372Z,70.91
2023-01-01T21:37:52.856Z,70.81
2023-01-01T21:40:53.642Z,70.79
2023-01-01T21:43:44.124Z,70.77
2023-01-01T21:46:31.059Z,70.90
2023-01-01T21:49:19.246Z,70.97
2023-01-01T21:52:03.620Z,70.86
2023-01-01T21:54:38.352Z,70.91
2023-01-01T21:57:23.885Z,70.95
2023-01-01T21:59:54.507Z,70.76
2023-01-01T22:02:39.541Z,70.91
2023-01-01T22:05:33.536Z,70.86
2023-01-01T22:08:22.453Z,70.76
2023-01-01T22:10:50.554Z,70.68
2023-01-01T22:13:19.701Z,70.74
2023-01-01T22:15:47.545Z,70.74
2023-01-01T22:18:28.190Z,70.68
2023-01-01T22:20:58.136Z,70.63
2023-01-01T22:23:49.718Z,70.71
2023-01-01T22:26:23.391Z,70.73
2023-01-01T22:28:58.381Z,70.84
2023-01-01T22:31:48.869Z,70.75
2023-01-01T22:34:22.019Z,70.76
2023-01-01T22:36:50.355Z,70.69
2023-01-01T22:39:32.654Z,70.76
2023-01-01T22:42:00.648Z,70.87
2023-01-01T22:44:29.077Z,70.89
2023-01-01T22:46:58.909Z,70.79
2023-01-01T22:49:46.976Z,70.80
2023-01-01T22:52:14.960Z,70.83
2023-01-01T22:54:43.217Z,70.82
2023-01-01T22:57:11.199Z,70.86
2023-01-01T22:59:39.046Z,70.98
2023-01-01T23:02:06.984Z,70.98
2023-01-01T23:04:35.118Z,71.00
2023-01-01T23:07:04.623Z,70.96
2023-01-01T23:09:33.230Z,70.87
2023-01-01T23:12:01.241Z,70.90
2023-01-01T23:14:45.359Z,71.06
2023-01-01T23:17:13.527Z,70.88
2023-01-01T23:19:41.662Z,71.02
2023-01-01T23:22:10.034Z,70.91
2023-01-01T23:24:39.540Z,71.08
2023-01-01T23:27:15.180Z,71.13
2023-01-01T23:29:46.710Z,71.07
2023-01-01T23:32:15.782Z,71.05
2023-01-01T23:34:46.190Z,71.14
2023-01-01T23:37:16.135Z,71.29
2023-01-01T23:39:44.036Z,71.32
2023-01-01T23:42:11.898Z,71.35
2023-01-01T23:44:41.299Z,71.27
2023-01-01T23:47:10.391Z,71.40
2023-01-01T23:49:39.967Z,71.49
2023-01-01T23:52:09.036Z,71.35
2023-01-01T23:54:39.086Z,71.27
2023-01-01T23:57:07.218Z,71.50
2023-01-01T23:59:36.957Z,71.36
